sensor_id;sensor_type;location;lat;lon;timestamp;P1;durP1;ratioP1;P2;durP2;ratioP2
63818;SDS011;49970;54.976;73.248;2023-04-06T00:01:37;53.78;;;14.20;;
63818;SDS011;49970;54.976;73.248;2023-04-06T00:04:04;52.25;;;15.80;;
63818;SDS011;49970;54.976;73.248;2023-04-06T00:06:32;40.08;;;15.35;;
63818;SDS011;49970;54.976;73.248;2023-04-06T00:08:59;70.68;;;17.33;;
63818;SDS011;49970;54.976;73.248;2023-04-06T00:11:26;45.03;;;17.00;;
63818;SDS011;49970;54.976;73.248;2023-04-06T00:13:52;56.53;;;17.13;;
63818;SDS011;49970;54.976;73.248;2023-04-06T00:16:19;74.03;;;18.92;;
63818;SDS011;49970;54.976;73.248;2023-04-06T00:18:45;49.13;;;17.73;;
63818;SDS011;49970;54.976;73.248;2023-04-06T00:21:22;48.90;;;17.98;;
63818;SDS011;49970;54.976;73.248;2023-04-06T00:23:48;63.53;;;17.10;;
63818;SDS011;49970;54.976;73.248;2023-04-06T00:26:14;67.70;;;17.90;;
63818;SDS011;49970;54.976;73.248;2023-04-06T00:28:44;57.80;;;16.80;;
63818;SDS011;49970;54.976;73.248;2023-04-06T00:31:11;56.63;;;16.90;;
63818;SDS011;49970;54.976;73.248;2023-04-06T00:33:37;46.17;;;16.60;;
63818;SDS011;49970;54.976;73.248;2023-04-06T00:36:03;44.10;;;16.92;;
63818;SDS011;49970;54.976;73.248;2023-04-06T00:38:31;52.45;;;17.38;;
63818;SDS011;49970;54.976;73.248;2023-04-06T00:41:07;55.90;;;16.35;;
63818;SDS011;49970;54.976;73.248;2023-04-06T00:43:33;41.70;;;16.77;;
63818;SDS011;49970;54.976;73.248;2023-04-06T00:46:00;52.90;;;17.58;;
63818;SDS011;49970;54.976;73.248;2023-04-06T00:48:26;41.78;;;16.83;;
63818;SDS011;49970;54.976;73.248;2023-04-06T00:50:52;48.80;;;17.65;;
63818;SDS011;49970;54.976;73.248;2023-04-06T00:53:29;56.17;;;17.35;;
63818;SDS011;49970;54.976;73.248;2023-04-06T00:55:57;62.95;;;19.40;;
63818;SDS011;49970;54.976;73.248;2023-04-06T00:58:34;45.47;;;19.42;;
63818;SDS011;49970;54.976;73.248;2023-04-06T01:01:06;97.28;;;20.67;;
63818;SDS011;49970;54.976;73.248;2023-04-06T01:03:33;60.78;;;20.13;;
63818;SDS011;49970;54.976;73.248;2023-04-06T01:06:10;65.95;;;20.45;;
63818;SDS011;49970;54.976;73.248;2023-04-06T01:08:39;47.55;;;19.27;;
63818;SDS011;49970;54.976;73.248;2023-04-06T01:11:31;49.88;;;20.88;;
63818;SDS011;49970;54.976;73.248;2023-04-06T01:13:59;65.50;;;26.08;;
63818;SDS011;49970;54.976;73.248;2023-04-06T01:16:46;79.03;;;26.92;;
63818;SDS011;49970;54.976;73.248;2023-04-06T01:19:15;72.22;;;24.58;;
63818;SDS011;49970;54.976;73.248;2023-04-06T01:21:45;66.70;;;23.38;;
63818;SDS011;49970;54.976;73.248;2023-04-06T01:24:30;72.20;;;26.60;;
63818;SDS011;49970;54.976;73.248;2023-04-06T01:27:02;82.88;;;26.20;;
63818;SDS011;49970;54.976;73.248;2023-04-06T01:29:39;90.15;;;27.55;;
63818;SDS011;49970;54.976;73.248;2023-04-06T01:32:16;80.30;;;26.55;;
63818;SDS011;49970;54.976;73.248;2023-04-06T01:34:48;95.32;;;27.40;;
63818;SDS011;49970;54.976;73.248;2023-04-06T01:37:15;76.85;;;32.90;;
63818;SDS011;49970;54.976;73.248;2023-04-06T01:39:42;105.28;;;33.53;;
63818;SDS011;49970;54.976;73.248;2023-04-06T01:42:12;106.70;;;30.63;;
63818;SDS011;49970;54.976;73.248;2023-04-06T01:44:40;73.75;;;27.90;;
63818;SDS011;49970;54.976;73.248;2023-04-06T01:47:10;70.55;;;23.42;;
63818;SDS011;49970;54.976;73.248;2023-04-06T01:49:41;77.22;;;22.38;;
63818;SDS011;49970;54.976;73.248;2023-04-06T01:52:07;102.07;;;21.10;;
63818;SDS011;49970;54.976;73.248;2023-04-06T01:54:42;71.97;;;19.42;;
63818;SDS011;49970;54.976;73.248;2023-04-06T01:57:29;47.95;;;17.83;;
63818;SDS011;49970;54.976;73.248;2023-04-06T02:00:05;58.53;;;23.77;;
63818;SDS011;49970;54.976;73.248;2023-04-06T02:02:49;74.00;;;31.17;;
63818;SDS011;49970;54.976;73.248;2023-04-06T02:05:22;63.65;;;30.90;;
63818;SDS011;49970;54.976;73.248;2023-04-06T02:07:50;64.80;;;21.55;;
63818;SDS011;49970;54.976;73.248;2023-04-06T02:10:29;38.05;;;18.70;;
63818;SDS011;49970;54.976;73.248;2023-04-06T02:13:03;44.15;;;17.08;;
63818;SDS011;49970;54.976;73.248;2023-04-06T02:15:30;23.88;;;9.55;;
63818;SDS011;49970;54.976;73.248;2023-04-06T02:18:08;38.38;;;8.15;;
63818;SDS011;49970;54.976;73.248;2023-04-06T02:20:35;37.15;;;8.38;;
63818;SDS011;49970;54.976;73.248;2023-04-06T02:23:02;28.77;;;9.32;;
63818;SDS011;49970;54.976;73.248;2023-04-06T02:25:28;23.77;;;9.73;;
63818;SDS011;49970;54.976;73.248;2023-04-06T02:27:54;24.90;;;9.50;;
63818;SDS011;49970;54.976;73.248;2023-04-06T02:30:20;31.90;;;8.73;;
63818;SDS011;49970;54.976;73.248;2023-04-06T02:32:47;37.25;;;9.05;;
63818;SDS011;49970;54.976;73.248;2023-04-06T02:35:13;61.83;;;7.97;;
63818;SDS011;49970;54.976;73.248;2023-04-06T02:37:40;33.25;;;7.80;;
63818;SDS011;49970;54.976;73.248;2023-04-06T02:40:07;20.52;;;7.35;;
63818;SDS011;49970;54.976;73.248;2023-04-06T02:42:33;38.25;;;7.85;;
63818;SDS011;49970;54.976;73.248;2023-04-06T02:45:02;20.98;;;9.10;;
63818;SDS011;49970;54.976;73.248;2023-04-06T02:47:33;36.28;;;9.57;;
63818;SDS011;49970;54.976;73.248;2023-04-06T02:50:00;27.83;;;7.22;;
63818;SDS011;49970;54.976;73.248;2023-04-06T02:52:27;38.08;;;7.75;;
63818;SDS011;49970;54.976;73.248;2023-04-06T02:54:56;25.25;;;6.75;;
63818;SDS011;49970;54.976;73.248;2023-04-06T02:57:27;21.67;;;6.45;;
63818;SDS011;49970;54.976;73.248;2023-04-06T02:59:53;15.95;;;6.03;;
63818;SDS011;49970;54.976;73.248;2023-04-06T03:02:27;13.27;;;6.25;;
63818;SDS011;49970;54.976;73.248;2023-04-06T03:05:02;24.42;;;6.43;;
63818;SDS011;49970;54.976;73.248;2023-04-06T03:07:33;32.28;;;5.88;;
63818;SDS011;49970;54.976;73.248;2023-04-06T03:10:00;20.30;;;6.03;;
63818;SDS011;49970;54.976;73.248;2023-04-06T03:12:29;34.00;;;6.40;;
63818;SDS011;49970;54.976;73.248;2023-04-06T03:15:07;37.67;;;5.68;;
63818;SDS011;49970;54.976;73.248;2023-04-06T03:17:38;23.33;;;5.50;;
63818;SDS011;49970;54.976;73.248;2023-04-06T03:20:10;61.05;;;6.50;;
63818;SDS011;49970;54.976;73.248;2023-04-06T03:22:47;12.98;;;5.20;;
63818;SDS011;49970;54.976;73.248;2023-04-06T03:25:21;24.60;;;5.70;;
63818;SDS011;49970;54.976;73.248;2023-04-06T03:27:48;20.55;;;5.28;;
63818;SDS011;49970;54.976;73.248;2023-04-06T03:30:19;18.25;;;5.68;;
63818;SDS011;49970;54.976;73.248;2023-04-06T03:32:45;15.00;;;4.47;;
63818;SDS011;49970;54.976;73.248;2023-04-06T03:35:12;11.13;;;4.78;;
63818;SDS011;49970;54.976;73.248;2023-04-06T03:37:38;34.15;;;6.47;;
63818;SDS011;49970;54.976;73.248;2023-04-06T03:40:05;24.92;;;5.97;;
63818;SDS011;49970;54.976;73.248;2023-04-06T03:42:31;14.63;;;5.90;;
63818;SDS011;49970;54.976;73.248;2023-04-06T03:47:31;24.77;;;5.82;;
63818;SDS011;49970;54.976;73.248;2023-04-06T03:50:02;21.63;;;5.47;;
63818;SDS011;49970;54.976;73.248;2023-04-06T03:52:30;33.00;;;5.95;;
63818;SDS011;49970;54.976;73.248;2023-04-06T03:54:57;35.35;;;5.55;;
63818;SDS011;49970;54.976;73.248;2023-04-06T03:57:23;19.42;;;4.18;;
63818;SDS011;49970;54.976;73.248;2023-04-06T03:59:59;24.90;;;4.70;;
63818;SDS011;49970;54.976;73.248;2023-04-06T04:02:26;17.15;;;4.20;;
63818;SDS011;49970;54.976;73.248;2023-04-06T04:04:52;23.83;;;4.80;;
63818;SDS011;49970;54.976;73.248;2023-04-06T04:07:18;15.32;;;5.35;;
63818;SDS011;49970;54.976;73.248;2023-04-06T04:09:45;25.90;;;5.50;;
63818;SDS011;49970;54.976;73.248;2023-04-06T04:12:11;18.65;;;5.10;;
63818;SDS011;49970;54.976;73.248;2023-04-06T04:14:37;24.95;;;4.22;;
63818;SDS011;49970;54.976;73.248;2023-04-06T04:17:03;15.55;;;4.40;;
63818;SDS011;49970;54.976;73.248;2023-04-06T04:19:33;29.40;;;4.70;;
63818;SDS011;49970;54.976;73.248;2023-04-06T04:21:59;11.75;;;4.00;;
63818;SDS011;49970;54.976;73.248;2023-04-06T04:24:32;24.40;;;4.50;;
63818;SDS011;49970;54.976;73.248;2023-04-06T04:26:59;16.52;;;3.78;;
63818;SDS011;49970;54.976;73.248;2023-04-06T04:29:31;24.10;;;4.55;;
63818;SDS011;49970;54.976;73.248;2023-04-06T04:32:02;37.35;;;6.28;;
63818;SDS011;49970;54.976;73.248;2023-04-06T04:34:30;22.33;;;4.80;;
63818;SDS011;49970;54.976;73.248;2023-04-06T04:36:56;22.30;;;4.10;;
63818;SDS011;49970;54.976;73.248;2023-04-06T04:39:40;15.00;;;4.13;;
63818;SDS011;49970;54.976;73.248;2023-04-06T04:42:07;31.75;;;4.25;;
63818;SDS011;49970;54.976;73.248;2023-04-06T04:44:36;26.90;;;4.63;;
63818;SDS011;49970;54.976;73.248;2023-04-06T04:47:03;22.33;;;4.28;;
63818;SDS011;49970;54.976;73.248;2023-04-06T04:49:39;22.00;;;4.80;;
63818;SDS011;49970;54.976;73.248;2023-04-06T04:52:06;27.92;;;4.60;;
63818;SDS011;49970;54.976;73.248;2023-04-06T04:54:43;76.00;;;5.80;;
63818;SDS011;49970;54.976;73.248;2023-04-06T04:57:15;36.72;;;4.43;;
63818;SDS011;49970;54.976;73.248;2023-04-06T04:59:43;26.27;;;4.88;;
63818;SDS011;49970;54.976;73.248;2023-04-06T05:02:16;39.35;;;4.30;;
63818;SDS011;49970;54.976;73.248;2023-04-06T05:04:54;38.17;;;4.05;;
63818;SDS011;49970;54.976;73.248;2023-04-06T05:07:23;27.67;;;4.93;;
63818;SDS011;49970;54.976;73.248;2023-04-06T05:09:52;22.60;;;4.45;;
63818;SDS011;49970;54.976;73.248;2023-04-06T05:12:25;20.85;;;3.33;;
63818;SDS011;49970;54.976;73.248;2023-04-06T05:15:04;15.60;;;3.50;;
63818;SDS011;49970;54.976;73.248;2023-04-06T05:17:34;27.33;;;4.47;;
63818;SDS011;49970;54.976;73.248;2023-04-06T05:20:01;16.95;;;5.18;;
63818;SDS011;49970;54.976;73.248;2023-04-06T05:22:30;15.80;;;3.50;;
63818;SDS011;49970;54.976;73.248;2023-04-06T05:25:14;20.40;;;3.72;;
63818;SDS011;49970;54.976;73.248;2023-04-06T05:27:41;31.85;;;3.85;;
63818;SDS011;49970;54.976;73.248;2023-04-06T05:30:21;45.13;;;5.18;;
63818;SDS011;49970;54.976;73.248;2023-04-06T05:32:48;23.65;;;4.07;;
63818;SDS011;49970;54.976;73.248;2023-04-06T05:35:16;16.60;;;3.58;;
63818;SDS011;49970;54.976;73.248;2023-04-06T05:37:47;13.35;;;3.47;;
63818;SDS011;49970;54.976;73.248;2023-04-06T05:40:13;19.35;;;3.75;;
63818;SDS011;49970;54.976;73.248;2023-04-06T05:42:40;32.53;;;3.92;;
63818;SDS011;49970;54.976;73.248;2023-04-06T05:45:11;24.73;;;3.17;;
63818;SDS011;49970;54.976;73.248;2023-04-06T05:47:45;17.55;;;3.50;;
63818;SDS011;49970;54.976;73.248;2023-04-06T05:50:22;12.93;;;3.92;;
63818;SDS011;49970;54.976;73.248;2023-04-06T05:52:50;17.13;;;3.60;;
63818;SDS011;49970;54.976;73.248;2023-04-06T05:55:19;27.83;;;3.90;;
63818;SDS011;49970;54.976;73.248;2023-04-06T05:57:50;11.80;;;3.70;;
63818;SDS011;49970;54.976;73.248;2023-04-06T06:00:18;15.98;;;3.58;;
63818;SDS011;49970;54.976;73.248;2023-04-06T06:02:55;22.02;;;4.50;;
63818;SDS011;49970;54.976;73.248;2023-04-06T06:05:26;30.60;;;4.07;;
63818;SDS011;49970;54.976;73.248;2023-04-06T06:08:03;16.33;;;3.67;;
63818;SDS011;49970;54.976;73.248;2023-04-06T06:10:40;14.82;;;4.10;;
63818;SDS011;49970;54.976;73.248;2023-04-06T06:13:08;13.10;;;3.28;;
63818;SDS011;49970;54.976;73.248;2023-04-06T06:15:40;30.90;;;4.05;;
63818;SDS011;49970;54.976;73.248;2023-04-06T06:18:07;14.98;;;3.80;;
63818;SDS011;49970;54.976;73.248;2023-04-06T06:20:33;50.33;;;4.85;;
63818;SDS011;49970;54.976;73.248;2023-04-06T06:23:03;31.13;;;4.53;;
63818;SDS011;49970;54.976;73.248;2023-04-06T06:25:30;13.90;;;4.13;;
63818;SDS011;49970;54.976;73.248;2023-04-06T06:28:01;31.77;;;4.35;;
63818;SDS011;49970;54.976;73.248;2023-04-06T06:30:35;29.00;;;3.92;;
63818;SDS011;49970;54.976;73.248;2023-04-06T06:33:01;10.50;;;3.10;;
63818;SDS011;49970;54.976;73.248;2023-04-06T06:35:29;24.20;;;3.70;;
63818;SDS011;49970;54.976;73.248;2023-04-06T06:37:57;7.95;;;2.90;;
63818;SDS011;49970;54.976;73.248;2023-04-06T06:40:26;14.30;;;3.80;;
63818;SDS011;49970;54.976;73.248;2023-04-06T06:42:54;23.35;;;3.83;;
63818;SDS011;49970;54.976;73.248;2023-04-06T06:45:43;18.45;;;3.30;;
63818;SDS011;49970;54.976;73.248;2023-04-06T06:48:17;11.75;;;3.38;;
63818;SDS011;49970;54.976;73.248;2023-04-06T06:50:43;28.25;;;3.50;;
63818;SDS011;49970;54.976;73.248;2023-04-06T06:53:16;9.75;;;2.95;;
63818;SDS011;49970;54.976;73.248;2023-04-06T06:55:43;23.20;;;3.30;;
63818;SDS011;49970;54.976;73.248;2023-04-06T06:58:12;18.05;;;3.33;;
63818;SDS011;49970;54.976;73.248;2023-04-06T07:00:38;16.08;;;2.58;;
63818;SDS011;49970;54.976;73.248;2023-04-06T07:03:04;29.33;;;3.38;;
63818;SDS011;49970;54.976;73.248;2023-04-06T07:05:31;11.05;;;3.75;;
63818;SDS011;49970;54.976;73.248;2023-04-06T07:07:58;14.68;;;3.10;;
63818;SDS011;49970;54.976;73.248;2023-04-06T07:10:32;14.10;;;3.28;;
63818;SDS011;49970;54.976;73.248;2023-04-06T07:12:58;16.10;;;4.30;;
63818;SDS011;49970;54.976;73.248;2023-04-06T07:15:25;10.60;;;2.80;;
63818;SDS011;49970;54.976;73.248;2023-04-06T07:17:51;16.73;;;3.58;;
63818;SDS011;49970;54.976;73.248;2023-04-06T07:20:20;24.63;;;3.10;;
63818;SDS011;49970;54.976;73.248;2023-04-06T07:22:46;18.83;;;3.00;;
63818;SDS011;49970;54.976;73.248;2023-04-06T07:25:13;5.97;;;2.65;;
63818;SDS011;49970;54.976;73.248;2023-04-06T07:27:40;8.75;;;3.08;;
63818;SDS011;49970;54.976;73.248;2023-04-06T07:30:07;12.90;;;2.25;;
63818;SDS011;49970;54.976;73.248;2023-04-06T07:32:34;17.15;;;2.70;;
63818;SDS011;49970;54.976;73.248;2023-04-06T07:35:02;15.52;;;3.05;;
63818;SDS011;49970;54.976;73.248;2023-04-06T07:37:29;15.82;;;3.25;;
63818;SDS011;49970;54.976;73.248;2023-04-06T07:39:55;17.98;;;4.03;;
63818;SDS011;49970;54.976;73.248;2023-04-06T07:42:32;34.25;;;3.75;;
63818;SDS011;49970;54.976;73.248;2023-04-06T07:44:58;35.85;;;4.05;;
63818;SDS011;49970;54.976;73.248;2023-04-06T07:47:24;25.45;;;3.20;;
63818;SDS011;49970;54.976;73.248;2023-04-06T07:49:51;38.63;;;4.07;;
63818;SDS011;49970;54.976;73.248;2023-04-06T07:52:25;39.67;;;3.92;;
63818;SDS011;49970;54.976;73.248;2023-04-06T07:54:51;9.43;;;2.88;;
63818;SDS011;49970;54.976;73.248;2023-04-06T07:57:21;23.10;;;4.38;;
63818;SDS011;49970;54.976;73.248;2023-04-06T07:59:47;16.17;;;2.97;;
63818;SDS011;49970;54.976;73.248;2023-04-06T08:02:13;9.45;;;3.00;;
63818;SDS011;49970;54.976;73.248;2023-04-06T08:04:40;43.55;;;4.57;;
63818;SDS011;49970;54.976;73.248;2023-04-06T08:07:06;27.00;;;3.65;;
63818;SDS011;49970;54.976;73.248;2023-04-06T08:09:32;29.00;;;3.97;;
63818;SDS011;49970;54.976;73.248;2023-04-06T08:11:59;92.05;;;6.30;;
63818;SDS011;49970;54.976;73.248;2023-04-06T08:14:25;11.23;;;3.15;;
63818;SDS011;49970;54.976;73.248;2023-04-06T08:16:56;44.70;;;4.05;;
63818;SDS011;49970;54.976;73.248;2023-04-06T08:19:23;20.13;;;4.25;;
63818;SDS011;49970;54.976;73.248;2023-04-06T08:21:49;32.78;;;4.10;;
63818;SDS011;49970;54.976;73.248;2023-04-06T08:24:26;43.15;;;3.83;;
63818;SDS011;49970;54.976;73.248;2023-04-06T08:26:53;22.27;;;2.95;;
63818;SDS011;49970;54.976;73.248;2023-04-06T08:29:19;14.75;;;3.15;;
63818;SDS011;49970;54.976;73.248;2023-04-06T08:31:45;50.63;;;4.55;;
63818;SDS011;49970;54.976;73.248;2023-04-06T08:34:17;15.15;;;2.47;;
63818;SDS011;49970;54.976;73.248;2023-04-06T08:36:43;11.63;;;3.55;;
63818;SDS011;49970;54.976;73.248;2023-04-06T08:39:09;10.18;;;2.63;;
63818;SDS011;49970;54.976;73.248;2023-04-06T08:41:35;26.00;;;3.30;;
63818;SDS011;49970;54.976;73.248;2023-04-06T08:44:05;21.98;;;3.67;;
63818;SDS011;49970;54.976;73.248;2023-04-06T08:46:32;36.63;;;2.95;;
63818;SDS011;49970;54.976;73.248;2023-04-06T08:48:59;18.67;;;3.10;;
63818;SDS011;49970;54.976;73.248;2023-04-06T08:51:27;13.75;;;2.90;;
63818;SDS011;49970;54.976;73.248;2023-04-06T08:53:56;12.57;;;3.72;;
63818;SDS011;49970;54.976;73.248;2023-04-06T08:56:25;15.32;;;3.53;;
63818;SDS011;49970;54.976;73.248;2023-04-06T08:58:53;99.57;;;6.43;;
63818;SDS011;49970;54.976;73.248;2023-04-06T09:01:25;14.48;;;3.58;;
63818;SDS011;49970;54.976;73.248;2023-04-06T09:03:56;24.38;;;6.25;;
63818;SDS011;49970;54.976;73.248;2023-04-06T09:06:24;14.98;;;3.47;;
63818;SDS011;49970;54.976;73.248;2023-04-06T09:08:52;37.60;;;3.67;;
63818;SDS011;49970;54.976;73.248;2023-04-06T09:11:19;14.05;;;3.65;;
63818;SDS011;49970;54.976;73.248;2023-04-06T09:13:46;15.93;;;4.13;;
63818;SDS011;49970;54.976;73.248;2023-04-06T09:16:17;43.78;;;4.35;;
63818;SDS011;49970;54.976;73.248;2023-04-06T09:18:44;37.00;;;4.75;;
63818;SDS011;49970;54.976;73.248;2023-04-06T09:21:21;21.75;;;3.30;;
63818;SDS011;49970;54.976;73.248;2023-04-06T09:23:57;19.10;;;3.25;;
63818;SDS011;49970;54.976;73.248;2023-04-06T09:26:25;12.35;;;3.38;;
63818;SDS011;49970;54.976;73.248;2023-04-06T09:28:53;18.17;;;4.00;;
63818;SDS011;49970;54.976;73.248;2023-04-06T09:31:29;18.88;;;3.58;;
63818;SDS011;49970;54.976;73.248;2023-04-06T09:33:58;12.93;;;3.42;;
63818;SDS011;49970;54.976;73.248;2023-04-06T09:36:35;23.92;;;2.65;;
63818;SDS011;49970;54.976;73.248;2023-04-06T09:39:06;11.00;;;3.30;;
63818;SDS011;49970;54.976;73.248;2023-04-06T09:41:34;28.52;;;3.90;;
63818;SDS011;49970;54.976;73.248;2023-04-06T09:44:05;8.73;;;3.42;;
63818;SDS011;49970;54.976;73.248;2023-04-06T09:46:33;42.40;;;4.47;;
63818;SDS011;49970;54.976;73.248;2023-04-06T09:49:12;41.40;;;2.85;;
63818;SDS011;49970;54.976;73.248;2023-04-06T09:51:49;10.13;;;3.67;;
63818;SDS011;49970;54.976;73.248;2023-04-06T09:54:21;14.32;;;3.00;;
63818;SDS011;49970;54.976;73.248;2023-04-06T10:02:19;18.83;;;2.72;;
63818;SDS011;49970;54.976;73.248;2023-04-06T10:04:58;20.63;;;3.47;;
63818;SDS011;49970;54.976;73.248;2023-04-06T10:07:33;20.02;;;3.22;;
63818;SDS011;49970;54.976;73.248;2023-04-06T10:10:00;58.33;;;4.38;;
63818;SDS011;49970;54.976;73.248;2023-04-06T10:12:28;11.88;;;2.60;;
63818;SDS011;49970;54.976;73.248;2023-04-06T10:14:55;19.13;;;3.13;;
63818;SDS011;49970;54.976;73.248;2023-04-06T10:17:27;25.27;;;3.47;;
63818;SDS011;49970;54.976;73.248;2023-04-06T10:20:15;18.52;;;3.08;;
63818;SDS011;49970;54.976;73.248;2023-04-06T10:22:56;23.42;;;2.97;;
63818;SDS011;49970;54.976;73.248;2023-04-06T10:25:31;14.15;;;2.72;;
63818;SDS011;49970;54.976;73.248;2023-04-06T10:27:59;18.90;;;2.80;;
63818;SDS011;49970;54.976;73.248;2023-04-06T10:30:35;83.53;;;4.50;;
63818;SDS011;49970;54.976;73.248;2023-04-06T10:35:41;28.83;;;3.95;;
63818;SDS011;49970;54.976;73.248;2023-04-06T10:38:07;20.52;;;3.38;;
63818;SDS011;49970;54.976;73.248;2023-04-06T10:40:37;12.57;;;2.28;;
63818;SDS011;49970;54.976;73.248;2023-04-06T10:43:09;13.88;;;2.83;;
63818;SDS011;49970;54.976;73.248;2023-04-06T10:45:37;23.52;;;2.92;;
63818;SDS011;49970;54.976;73.248;2023-04-06T10:48:17;24.45;;;3.13;;
63818;SDS011;49970;54.976;73.248;2023-04-06T10:50:46;39.28;;;4.15;;
63818;SDS011;49970;54.976;73.248;2023-04-06T10:53:26;35.53;;;2.97;;
63818;SDS011;49970;54.976;73.248;2023-04-06T10:55:55;10.93;;;2.90;;
63818;SDS011;49970;54.976;73.248;2023-04-06T10:58:28;10.50;;;2.88;;
63818;SDS011;49970;54.976;73.248;2023-04-06T11:03:21;11.50;;;2.00;;
63818;SDS011;49970;54.976;73.248;2023-04-06T11:05:49;12.65;;;2.42;;
63818;SDS011;49970;54.976;73.248;2023-04-06T11:08:30;22.50;;;3.22;;
63818;SDS011;49970;54.976;73.248;2023-04-06T11:11:10;51.65;;;3.53;;
63818;SDS011;49970;54.976;73.248;2023-04-06T11:13:50;6.18;;;2.28;;
63818;SDS011;49970;54.976;73.248;2023-04-06T11:21:40;7.25;;;2.03;;
63818;SDS011;49970;54.976;73.248;2023-04-06T11:24:19;299.50;;;12.20;;
63818;SDS011;49970;54.976;73.248;2023-04-06T11:26:50;29.92;;;4.00;;
63818;SDS011;49970;54.976;73.248;2023-04-06T11:29:21;37.25;;;3.42;;
63818;SDS011;49970;54.976;73.248;2023-04-06T11:31:49;19.80;;;2.40;;
63818;SDS011;49970;54.976;73.248;2023-04-06T11:34:17;11.77;;;1.95;;
63818;SDS011;49970;54.976;73.248;2023-04-06T11:36:45;17.70;;;2.45;;
63818;SDS011;49970;54.976;73.248;2023-04-06T11:39:13;4.90;;;2.35;;
63818;SDS011;49970;54.976;73.248;2023-04-06T11:41:47;43.78;;;3.80;;
63818;SDS011;49970;54.976;73.248;2023-04-06T11:44:14;20.08;;;2.10;;
63818;SDS011;49970;54.976;73.248;2023-04-06T11:46:52;10.20;;;2.28;;
63818;SDS011;49970;54.976;73.248;2023-04-06T11:49:30;51.72;;;3.65;;
63818;SDS011;49970;54.976;73.248;2023-04-06T11:51:57;24.60;;;2.75;;
63818;SDS011;49970;54.976;73.248;2023-04-06T11:54:34;14.60;;;2.50;;
63818;SDS011;49970;54.976;73.248;2023-04-06T11:57:03;15.43;;;2.00;;
63818;SDS011;49970;54.976;73.248;2023-04-06T11:59:31;12.98;;;2.35;;
63818;SDS011;49970;54.976;73.248;2023-04-06T12:01:58;10.20;;;1.67;;
63818;SDS011;49970;54.976;73.248;2023-04-06T12:04:24;25.52;;;3.03;;
63818;SDS011;49970;54.976;73.248;2023-04-06T12:07:01;11.30;;;2.25;;
63818;SDS011;49970;54.976;73.248;2023-04-06T12:09:27;13.15;;;2.30;;
63818;SDS011;49970;54.976;73.248;2023-04-06T12:11:53;44.35;;;3.55;;
63818;SDS011;49970;54.976;73.248;2023-04-06T12:14:20;54.30;;;3.22;;
63818;SDS011;49970;54.976;73.248;2023-04-06T12:16:46;16.60;;;2.13;;
63818;SDS011;49970;54.976;73.248;2023-04-06T12:19:12;13.70;;;1.85;;
63818;SDS011;49970;54.976;73.248;2023-04-06T12:21:43;26.67;;;2.78;;
63818;SDS011;49970;54.976;73.248;2023-04-06T12:24:10;74.65;;;4.40;;
63818;SDS011;49970;54.976;73.248;2023-04-06T12:26:46;21.48;;;2.80;;
63818;SDS011;49970;54.976;73.248;2023-04-06T12:29:12;87.70;;;4.00;;
63818;SDS011;49970;54.976;73.248;2023-04-06T12:31:47;42.70;;;3.25;;
63818;SDS011;49970;54.976;73.248;2023-04-06T12:34:13;78.55;;;4.60;;
63818;SDS011;49970;54.976;73.248;2023-04-06T12:36:44;183.55;;;9.23;;
63818;SDS011;49970;54.976;73.248;2023-04-06T12:39:11;133.82;;;6.63;;
63818;SDS011;49970;54.976;73.248;2023-04-06T12:41:38;45.35;;;4.40;;
63818;SDS011;49970;54.976;73.248;2023-04-06T12:44:07;76.63;;;4.75;;
63818;SDS011;49970;54.976;73.248;2023-04-06T12:46:34;43.85;;;4.00;;
63818;SDS011;49970;54.976;73.248;2023-04-06T12:49:00;147.32;;;8.63;;
63818;SDS011;49970;54.976;73.248;2023-04-06T12:51:28;102.55;;;6.05;;
63818;SDS011;49970;54.976;73.248;2023-04-06T12:53:56;87.72;;;6.07;;
63818;SDS011;49970;54.976;73.248;2023-04-06T12:56:32;49.80;;;4.78;;
63818;SDS011;49970;54.976;73.248;2023-04-06T12:58:59;53.75;;;4.35;;
63818;SDS011;49970;54.976;73.248;2023-04-06T13:01:25;44.72;;;6.00;;
63818;SDS011;49970;54.976;73.248;2023-04-06T13:04:13;70.88;;;6.50;;
63818;SDS011;49970;54.976;73.248;2023-04-06T13:08:05;61.80;;;7.72;;
63818;SDS011;49970;54.976;73.248;2023-04-06T13:10:32;65.50;;;8.25;;
63818;SDS011;49970;54.976;73.248;2023-04-06T13:12:58;38.67;;;5.32;;
63818;SDS011;49970;54.976;73.248;2023-04-06T13:15:24;56.03;;;6.80;;
63818;SDS011;49970;54.976;73.248;2023-04-06T13:17:51;139.68;;;9.77;;
63818;SDS011;49970;54.976;73.248;2023-04-06T13:20:25;157.88;;;9.52;;
63818;SDS011;49970;54.976;73.248;2023-04-06T13:22:51;150.20;;;10.55;;
63818;SDS011;49970;54.976;73.248;2023-04-06T13:25:18;157.30;;;10.98;;
63818;SDS011;49970;54.976;73.248;2023-04-06T13:27:44;100.07;;;8.48;;
63818;SDS011;49970;54.976;73.248;2023-04-06T13:32:43;71.15;;;7.68;;
63818;SDS011;49970;54.976;73.248;2023-04-06T13:35:10;86.88;;;7.05;;
63818;SDS011;49970;54.976;73.248;2023-04-06T13:37:37;70.70;;;8.73;;
63818;SDS011;49970;54.976;73.248;2023-04-06T13:40:04;94.38;;;9.13;;
63818;SDS011;49970;54.976;73.248;2023-04-06T13:42:31;109.63;;;8.68;;
63818;SDS011;49970;54.976;73.248;2023-04-06T13:44:58;66.47;;;7.70;;
63818;SDS011;49970;54.976;73.248;2023-04-06T13:47:29;101.75;;;9.23;;
63818;SDS011;49970;54.976;73.248;2023-04-06T13:49:56;111.70;;;10.63;;
63818;SDS011;49970;54.976;73.248;2023-04-06T13:52:22;149.90;;;11.20;;
63818;SDS011;49970;54.976;73.248;2023-04-06T13:54:49;223.25;;;15.43;;
63818;SDS011;49970;54.976;73.248;2023-04-06T13:57:15;231.05;;;15.77;;
63818;SDS011;49970;54.976;73.248;2023-04-06T13:59:42;243.25;;;15.38;;
63818;SDS011;49970;54.976;73.248;2023-04-06T14:02:09;196.07;;;15.25;;
63818;SDS011;49970;54.976;73.248;2023-04-06T14:04:36;153.98;;;13.40;;
63818;SDS011;49970;54.976;73.248;2023-04-06T14:07:03;182.95;;;15.73;;
63818;SDS011;49970;54.976;73.248;2023-04-06T14:09:39;179.55;;;15.30;;
63818;SDS011;49970;54.976;73.248;2023-04-06T14:12:05;151.70;;;14.00;;
63818;SDS011;49970;54.976;73.248;2023-04-06T14:14:32;163.00;;;15.05;;
63818;SDS011;49970;54.976;73.248;2023-04-06T14:16:58;145.20;;;14.63;;
63818;SDS011;49970;54.976;73.248;2023-04-06T14:19:24;203.70;;;16.30;;
63818;SDS011;49970;54.976;73.248;2023-04-06T14:21:51;186.32;;;16.48;;
63818;SDS011;49970;54.976;73.248;2023-04-06T14:24:17;212.10;;;16.63;;
63818;SDS011;49970;54.976;73.248;2023-04-06T14:26:44;400.10;;;26.08;;
63818;SDS011;49970;54.976;73.248;2023-04-06T14:29:10;153.82;;;15.13;;
63818;SDS011;49970;54.976;73.248;2023-04-06T14:31:37;186.73;;;16.35;;
63818;SDS011;49970;54.976;73.248;2023-04-06T14:34:03;159.50;;;15.32;;
63818;SDS011;49970;54.976;73.248;2023-04-06T14:36:33;152.88;;;16.13;;
63818;SDS011;49970;54.976;73.248;2023-04-06T14:39:13;127.25;;;16.27;;
63818;SDS011;49970;54.976;73.248;2023-04-06T14:41:40;107.85;;;17.85;;
63818;SDS011;49970;54.976;73.248;2023-04-06T14:44:06;134.35;;;19.15;;
63818;SDS011;49970;54.976;73.248;2023-04-06T14:47:37;143.75;;;19.50;;
63818;SDS011;49970;54.976;73.248;2023-04-06T14:50:04;121.43;;;19.88;;
63818;SDS011;49970;54.976;73.248;2023-04-06T14:52:30;127.03;;;21.13;;
63818;SDS011;49970;54.976;73.248;2023-04-06T14:54:58;146.10;;;22.85;;
63818;SDS011;49970;54.976;73.248;2023-04-06T14:57:25;152.48;;;23.75;;